Latest Weather Observations for Scone Airport

IDN60801

Issued at 6:04 pm EST Saturday 28 May 2016 (issued every 30 minutes, with the page automatically refreshed every 10 minutes)

About weather observations | Map of weather stations | Latest weather observations for NSW | Other Formats
Station Details ID: 061363 Name: SCONE AIRPORT AWS Lat: -32.03 Lon: 150.83 Height: 221.4 m
Data from the previous 72 hours. | See also: Recent months at Scone Airport
Date/Time
EST
Temp
°C
App
Temp
°C
Dew
Point
Rel
Hum
%
Delta-T
°C
Wind Press
QNH
hPa
Press
MSL
hPa
Rain
since 9 am
mm
Dir
 
Spd
km/h
Gust
km/h
Spd
kts
Gust
kts
28/06:00pm 9.9 5.5 4.7 70 2.4 NW 17 28 9 15 1012.6 1012.4 1.2
28/05:30pm 10.0 4.6 4.6 69 2.4 WNW 22 32 12 17 1012.1 1011.9 1.2
28/05:00pm 10.4 5.0 4.5 67 2.7 WNW 22 33 12 18 1011.3 1011.2 1.2
28/04:30pm 10.9 5.9 4.6 65 2.9 WNW 20 30 11 16 1010.7 1010.6 1.2
28/04:00pm 12.1 6.7 4.6 60 3.5 W 22 32 12 17 1010.5 1010.4 1.2
28/03:30pm 12.2 7.5 6.0 66 2.9 WNW 20 35 11 19 1010.1 1010.0 1.2
28/03:00pm 11.9 7.3 6.4 69 2.6 NW 20 39 11 21 1009.8 1009.7 1.2
28/02:30pm 10.0 5.1 6.9 81 1.5 WNW 22 30 12 16 1009.4 1009.3 1.2
28/02:05pm 12.2 5.7 4.7 60 3.5 W 28 48 15 26 1009.1 1008.9 0.2
28/02:00pm 13.4 7.2 4.3 54 4.2 W 26 39 14 21 1008.7 1008.5 0.2
28/01:39pm 13.2 5.8 3.8 53 4.3 W 32 50 17 27 1008.3 1008.1 0.2
28/01:30pm 13.1 4.8 4.0 54 4.2 W 37 50 20 27 1008.3 1008.1 0.2
28/01:21pm 13.1 5.5 3.7 53 4.3 W 33 48 18 26 1008.2 1008.0 0.2
28/01:00pm 13.4 5.9 4.6 55 4.1 W 33 52 18 28 1008.2 1008.0 0.2
28/12:53pm 13.8 6.4 4.1 52 4.5 WNW 32 52 17 28 1008.0 1007.8 0.2
28/12:30pm 12.8 7.0 7.9 72 2.4 NW 28 44 15 24 1007.9 1007.7 0.2
28/12:00pm 13.2 7.7 6.1 62 3.4 NW 24 37 13 20 1008.2 1008.0 0.0
28/11:30am 13.8 7.6 6.2 60 3.7 NW 28 41 15 22 1008.4 1008.2 0.0
28/11:00am 12.6 5.4 6.0 64 3.2 NW 33 43 18 23 1008.7 1008.5 0.0
28/10:30am 12.4 6.2 6.0 65 3.0 NW 28 39 15 21 1008.9 1008.7 0.0
28/10:00am 12.4 6.8 7.1 70 2.6 NW 26 41 14 22 1009.0 1008.8 0.0
28/09:30am 11.1 4.3 6.8 75 2.1 NW 32 43 17 23 1009.4 1009.3 0.0
28/09:00am 11.4 6.0 6.5 72 2.3 NW 24 33 13 18 1009.4 1009.3 0.0
28/08:30am 11.8 7.3 5.9 67 2.8 NW 19 24 10 13 1009.4 1009.3 0.0
28/08:00am 11.4 7.2 5.5 67 2.8 WNW 17 20 9 11 1009.2 1009.0 0.0
28/07:30am 11.4 8.4 5.9 69 2.6 NW 11 17 6 9 1009.4 1009.3 0.0
28/07:00am 10.6 7.5 5.6 71 2.3 NNW 11 19 6 10 1009.2 1009.0 0.0
28/06:30am 8.9 4.9 5.1 77 1.7 NW 15 19 8 10 1009.1 1008.9 0.0
28/06:00am 8.0 4.9 3.7 74 1.9 NNW 9 11 5 6 1008.9 1008.7 0.0
28/05:30am 8.8 5.1 4.4 74 2.0 NNW 13 24 7 13 1009.0 1008.8 0.0
28/05:00am 7.3 4.9 4.3 81 1.3 NW 6 17 3 9 1009.1 1008.9 0.0
28/04:30am 6.9 5.6 4.0 82 1.3 CALM 0 4 0 2 1009.0 1008.8 0.0
28/04:00am 6.5 5.0 2.9 78 1.5 CALM 0 0 0 0 1009.2 1009.0 0.0
28/03:30am 8.2 5.4 3.3 71 2.1 N 7 9 4 5 1009.5 1009.4 0.0
28/03:00am 9.2 6.6 4.0 70 2.3 NNW 7 11 4 6 1009.8 1009.7 0.0
28/02:30am 9.3 6.8 3.9 69 2.4 NW 6 9 3 5 1010.0 1009.9 0.0
28/02:00am 9.4 6.3 3.8 68 2.5 NE 9 11 5 6 1010.1 1010.0 0.0
28/01:30am 8.6 6.0 3.2 69 2.3 NE 6 9 3 5 1010.3 1010.2 0.0
28/01:00am 10.0 7.4 4.0 66 2.7 NNE 7 11 4 6 1010.5 1010.4 0.0
28/12:30am 9.8 7.2 4.0 67 2.6 N 7 9 4 5 1010.9 1010.8 0.0
28/12:00am 10.1 7.3 3.4 63 3.0 N 7 9 4 5 1011.4 1011.3 0.0
 
Date/Time
EST
Temp
°C
App
Temp
°C
Dew
Point
Rel
Hum
%
Delta-T
°C
Wind Press
QNH
hPa
Press
MSL
hPa
Rain
since 9 am
mm
Dir
 
Spd
km/h
Gust
km/h
Spd
kts
Gust
kts
27/11:30pm 10.8 8.0 2.9 58 3.5 NNW 7 11 4 6 1011.9 1011.7 0.0
27/11:00pm 11.3 8.5 3.1 57 3.6 NW 7 11 4 6 1011.9 1011.7 0.0
27/10:30pm 11.7 7.7 3.0 55 3.9 NW 13 20 7 11 1011.9 1011.7 0.0
27/10:00pm 12.1 7.8 3.3 55 3.9 NW 15 24 8 13 1011.9 1011.7 0.0
27/09:30pm 11.7 7.7 2.7 54 4.0 NNW 13 19 7 10 1011.9 1011.7 0.0
27/09:00pm 11.8 8.6 2.8 54 4.0 NNW 9 11 5 6 1011.5 1011.4 0.0
27/08:30pm 11.7 8.9 3.0 55 3.9 NW 7 11 4 6 1011.3 1011.2 0.0
27/08:00pm 12.1 8.5 3.1 54 4.0 NNW 11 15 6 8 1011.0 1010.9 0.0
27/07:30pm 12.5 8.2 3.5 54 4.1 NW 15 20 8 11 1011.0 1010.9 0.0
27/07:00pm 12.4 8.5 3.4 54 4.1 NW 13 20 7 11 1010.5 1010.4 0.0
27/06:30pm 12.6 9.0 2.7 51 4.4 NNW 11 19 6 10 1010.1 1010.0 0.0
27/06:00pm 13.5 7.0 2.7 48 4.8 WNW 26 41 14 22 1009.6 1009.5 0.0
27/05:30pm 13.7 7.5 2.3 46 5.1 NW 24 35 13 19 1009.1 1008.9 0.0
27/05:00pm 13.9 8.7 2.2 45 5.2 NW 19 28 10 15 1008.6 1008.4 0.0
27/04:30pm 15.0 9.2 2.2 42 5.7 WNW 22 33 12 18 1008.0 1007.8 0.0
27/04:00pm 15.6 8.9 1.7 39 6.2 WNW 26 35 14 19 1007.8 1007.6 0.0
27/03:30pm 16.0 9.8 2.1 39 6.3 WNW 24 35 13 19 1007.5 1007.3 0.0
27/03:00pm 15.9 8.5 2.0 39 6.3 WNW 30 48 16 26 1006.9 1006.8 0.0
27/02:56pm 16.0 8.6 2.1 39 6.3 WNW 30 48 16 26 1006.9 1006.8 0.0
27/02:30pm 16.6 8.8 1.9 37 6.6 WNW 32 44 17 24 1006.5 1006.4 0.0
27/02:07pm 16.7 9.8 2.7 39 6.4 WNW 28 50 15 27 1006.4 1006.3 0.0
27/02:00pm 16.5 9.5 2.2 38 6.5 W 28 44 15 24 1006.4 1006.3 0.0
27/01:30pm 16.4 7.7 2.1 38 6.5 WNW 37 56 20 30 1006.2 1006.1 0.0
27/01:02pm 16.3 7.6 2.3 39 6.4 WNW 37 56 20 30 1006.4 1006.3 0.0
27/01:00pm 16.7 8.1 2.7 39 6.5 WNW 37 50 20 27 1006.4 1006.3 0.0
27/12:36pm 16.3 8.4 2.3 39 6.4 WNW 33 56 18 30 1006.5 1006.4 0.0
27/12:30pm 17.0 9.5 3.3 40 6.4 WNW 32 44 17 24 1006.7 1006.6 0.0
27/12:00pm 16.1 7.7 1.8 38 6.4 WNW 35 52 19 28 1006.8 1006.7 0.0
27/11:31am 15.8 7.9 2.2 40 6.1 WNW 33 52 18 28 1007.0 1006.9 0.0
27/11:30am 15.7 7.9 1.8 39 6.2 WNW 32 46 17 25 1007.2 1007.0 0.0
27/11:05am 15.9 8.9 2.0 39 6.3 WNW 28 52 15 28 1007.5 1007.3 0.0
27/11:00am 15.9 9.7 2.3 40 6.2 WNW 24 37 13 20 1007.6 1007.4 0.0
27/10:50am 14.8 7.9 2.4 43 5.6 WNW 28 48 15 26 1007.8 1007.6 0.0
27/10:30am 15.0 9.2 2.2 42 5.7 WNW 22 32 12 17 1008.1 1007.9 0.0
27/10:00am 14.3 7.8 2.5 45 5.3 WNW 26 39 14 21 1008.3 1008.1 0.0
27/09:30am 12.9 7.2 3.0 51 4.4 WNW 22 32 12 17 1008.4 1008.2 0.0
27/09:00am 12.3 7.8 4.0 57 3.8 NW 17 30 9 16 1008.3 1008.1 4.4
27/08:30am 12.2 7.4 4.7 60 3.5 NW 19 32 10 17 1008.1 1007.9 4.4
27/08:00am 11.7 7.2 4.4 61 3.3 NW 17 26 9 14 1007.7 1007.5 4.4
27/07:30am 11.7 7.2 4.2 60 3.4 NNW 17 24 9 13 1007.6 1007.4 4.4
27/07:00am 11.3 7.2 4.1 61 3.3 NNW 15 24 8 13 1007.3 1007.1 4.4
27/06:30am 11.7 8.0 4.2 60 3.4 NNW 13 19 7 10 1006.9 1006.8 4.4
27/06:00am 11.5 7.8 4.3 61 3.3 NNW 13 19 7 10 1006.4 1006.3 4.4
27/05:30am 11.2 7.1 4.2 62 3.2 NW 15 26 8 14 1006.0 1005.9 4.4
27/05:00am 11.7 5.2 4.9 63 3.2 WNW 28 46 15 25 1005.8 1005.7 4.4
27/04:30am 12.2 4.4 4.9 61 3.4 WNW 35 59 19 32 1005.1 1004.9 4.4
27/04:11am 12.4 6.2 6.0 65 3.0 WNW 28 46 15 25 1004.9 1004.7 4.4
27/04:00am 12.6 7.2 6.4 66 3.0 WNW 24 35 13 19 1004.8 1004.6 4.4
27/03:30am 13.1 6.3 6.7 65 3.1 WNW 32 46 17 25 1004.5 1004.3 4.4
27/03:00am 13.6 6.9 7.2 65 3.2 WNW 32 50 17 27 1004.5 1004.3 4.4
27/02:32am 13.8 7.0 7.6 66 3.1 WNW 33 52 18 28 1004.8 1004.6 4.4
27/02:30am 13.8 7.0 7.6 66 3.1 WNW 33 44 18 24 1004.8 1004.6 4.4
27/02:10am 13.8 8.0 7.8 67 3.0 WNW 28 46 15 25 1005.1 1004.9 4.4
27/02:00am 14.1 8.3 7.9 66 3.1 WNW 28 43 15 23 1005.0 1004.8 4.4
27/01:48am 14.2 8.4 7.9 66 3.2 WNW 28 46 15 25 1005.1 1004.9 4.4
27/01:30am 14.1 9.1 8.1 67 3.0 WNW 24 37 13 20 1004.8 1004.6 4.4
27/01:00am 14.5 8.8 8.5 67 3.1 WNW 28 37 15 20 1004.9 1004.7 4.4
27/12:30am 14.6 9.4 8.8 68 3.0 WNW 26 41 14 22 1005.2 1005.0 4.4
27/12:00am 14.9 9.8 9.3 69 2.9 WNW 26 39 14 21 1005.4 1005.2 4.4
 
Date/Time
EST
Temp
°C
App
Temp
°C
Dew
Point
Rel
Hum
%
Delta-T
°C
Wind Press
QNH
hPa
Press
MSL
hPa
Rain
since 9 am
mm
Dir
 
Spd
km/h
Gust
km/h
Spd
kts
Gust
kts
26/11:30pm 15.0 10.3 9.4 69 2.9 WNW 24 35 13 19 1005.1 1004.9 4.4
26/11:00pm 14.9 10.7 9.7 71 2.7 NW 22 35 12 19 1005.2 1005.0 4.4
26/10:30pm 14.3 11.1 9.9 75 2.3 NW 17 24 9 13 1005.1 1004.9 4.4
26/10:00pm 14.0 10.8 10.0 77 2.1 WNW 17 20 9 11 1005.2 1005.0 4.4
26/09:30pm 14.3 11.1 10.1 76 2.2 NW 17 22 9 12 1005.6 1005.5 4.4
26/09:00pm 14.3 12.0 10.3 77 2.1 NW 13 19 7 10 1005.6 1005.5 4.4
26/08:30pm 14.4 10.9 10.2 76 2.2 NW 19 24 10 13 1005.5 1005.4 4.4
26/08:00pm 14.4 11.3 10.2 76 2.2 NW 17 24 9 13 1005.4 1005.2 4.4
26/07:30pm 14.0 10.4 10.0 77 2.1 NW 19 24 10 13 1005.3 1005.1 4.4
26/07:00pm 14.3 10.8 10.1 76 2.2 NW 19 26 10 14 1005.2 1005.0 4.4
26/06:30pm 14.1 10.4 10.1 77 2.1 NW 20 28 11 15 1005.4 1005.2 4.4
26/06:00pm 13.6 9.1 10.0 79 1.9 WNW 24 35 13 19 1005.3 1005.1 4.4
26/05:30pm 14.2 10.5 10.2 77 2.1 WNW 20 32 11 17 1005.0 1004.8 4.4
26/05:00pm 13.8 10.1 9.6 76 2.2 WNW 19 26 10 14 1004.9 1004.7 4.4
26/04:30pm 14.3 9.5 8.9 70 2.8 NW 24 33 13 18 1004.6 1004.4 4.4
26/04:00pm 14.8 10.1 9.4 70 2.8 NW 24 37 13 20 1004.6 1004.4 4.4
26/03:30pm 15.1 10.0 9.2 68 3.1 NW 26 39 14 21 1004.8 1004.6 4.4
26/03:00pm 15.3 10.8 8.5 64 3.5 NNW 22 33 12 18 1004.9 1004.7 4.4
26/02:30pm 15.3 9.0 7.6 60 3.9 WNW 30 41 16 22 1004.2 1004.0 4.4
26/02:00pm 16.1 10.2 7.3 56 4.4 WNW 28 37 15 20 1004.4 1004.2 4.4
26/01:36pm 16.7 10.1 7.9 56 4.5 NW 32 52 17 28 1004.8 1004.6 4.4
26/01:30pm 16.3 10.4 7.5 56 4.4 NW 28 41 15 22 1004.6 1004.4 4.4
26/01:26pm 16.1 9.8 7.3 56 4.4 NW 30 48 16 26 1005.0 1004.8 4.4
26/01:00pm 16.0 11.2 7.2 56 4.4 NW 22 35 12 19 1005.4 1005.2 4.4
26/12:30pm 15.4 11.1 7.2 58 4.1 NNW 19 28 10 15 1006.0 1005.9 4.4
26/12:00pm 14.4 10.9 7.2 62 3.6 NNW 15 22 8 12 1007.0 1006.9 4.4
26/11:30am 12.8 8.7 7.9 72 2.4 N 19 26 10 14 1008.5 1008.3 4.4
26/11:00am 11.9 8.1 7.4 74 2.2 NNW 17 26 9 14 1010.1 1010.0 4.2
26/10:30am 11.8 8.7 7.3 74 2.2 NNW 13 22 7 12 1011.3 1011.2 3.6
26/10:00am 11.5 8.0 7.4 76 2.0 WNW 15 22 8 12 1011.2 1011.1 2.6
26/09:30am 13.4 8.9 6.0 61 3.6 WNW 19 26 10 14 1010.8 1010.7 0.4
26/09:00am 15.3 12.5 5.0 50 4.9 NW 9 13 5 7 1009.7 1009.6 0.0
26/08:30am 14.5 11.3 5.3 54 4.4 NW 11 15 6 8 1010.3 1010.2 0.0
26/08:00am 14.0 9.3 2.9 47 5.0 NW 17 28 9 15 1011.4 1011.3 0.0
26/07:30am 14.8 10.7 2.0 42 5.7 NW 13 15 7 8 1010.9 1010.8 0.0
26/07:00am 15.3 10.2 0.7 37 6.4 NNW 17 20 9 11 1010.7 1010.6 0.0
26/06:30am 14.8 10.5 1.0 39 6.0 NW 13 20 7 11 1011.9 1011.7 0.0
26/06:00am 13.6 9.7 1.3 43 5.3 NW 11 13 6 7 1011.7 1011.6 0.0
26/05:30am 13.2 8.6 1.8 46 5.0 W 15 20 8 11 1011.9 1011.7 0.0
26/05:00am 12.9 9.5 1.9 47 4.8 N 9 13 5 7 1011.5 1011.4 0.0
26/04:30am 13.5 9.3 1.8 45 5.1 NNW 13 17 7 9 1012.3 1012.1 0.0
26/04:00am 9.5 8.1 3.3 65 2.7 CALM 0 7 0 4 1012.8 1012.6 0.0
26/03:30am 8.6 6.9 3.8 72 2.1 E 2 9 1 5 1012.7 1012.5 0.0
26/03:00am 8.1 6.3 3.6 73 2.0 NE 2 7 1 4 1012.7 1012.5 0.0
26/02:30am 7.0 5.0 2.5 73 1.9 WNW 2 7 1 4 1012.7 1012.5 0.0
26/02:00am 6.5 4.3 1.0 68 2.2 NE 2 6 1 3 1012.7 1012.5 0.0
26/01:30am 6.8 5.1 2.1 72 1.9 CALM 0 0 0 0 1013.3 1013.2 0.0
26/01:00am 6.3 4.2 1.6 72 1.9 NW 2 7 1 4 1013.5 1013.4 0.0
26/12:30am 5.9 2.9 0.9 70 2.0 NW 6 7 3 4 1013.5 1013.4 0.0
26/12:00am 4.7 1.1 0.3 73 1.7 WNW 9 11 5 6 1013.7 1013.6 0.0
 
Date/Time
EST
Temp
°C
App
Temp
°C
Dew
Point
Rel
Hum
%
Delta-T
°C
Wind Press
QNH
hPa
Press
MSL
hPa
Rain
since 9 am
mm
Dir
 
Spd
km/h
Gust
km/h
Spd
kts
Gust
kts
25/11:30pm 5.9 3.6 0.5 68 2.1 W 2 9 1 5 1014.2 1014.1 0.0
25/11:00pm 5.8 3.4 0.0 66 2.3 ENE 2 7 1 4 1014.6 1014.5 0.0
25/10:30pm 6.5 4.1 -0.5 61 2.7 W 2 7 1 4 1014.9 1014.8 0.0
25/10:00pm 7.7 5.6 -0.5 56 3.2 CALM 0 0 0 0 1014.8 1014.7 0.0
25/09:30pm 7.8 5.6 -1.2 53 3.5 CALM 0 2 0 1 1015.2 1015.1 0.0
25/09:00pm 8.6 4.8 -0.9 51 3.7 NE 9 9 5 5 1015.4 1015.3 0.0
25/08:30pm 9.9 5.7 -0.6 48 4.2 NW 11 15 6 8 1015.6 1015.5 0.0
25/08:00pm 10.2 7.8 -0.3 48 4.2 N 2 9 1 5 1015.5 1015.4 0.0
25/07:30pm 9.5 6.3 -0.4 50 4.0 N 6 7 3 4 1015.2 1015.1 0.0
25/07:00pm 10.0 6.7 -1.4 45 4.5 NW 6 9 3 5 1015.2 1015.1 0.0
25/06:30pm 12.1 8.5 -1.8 38 5.5 NW 7 9 4 5 1015.1 1015.0 0.0

Other Formats:

Comma delimited format used in spreadsheet applications
http://www.bom.gov.au/fwo/IDN60801/IDN60801.95758.axf

JavaScript Object Notation format (JSON) in row-major order
http://www.bom.gov.au/fwo/IDN60801/IDN60801.95758.json